Time;durP1;ratioP1;P1;durP2;ratioP2;P2;SDS_P1;SDS_P2;PMS_P1;PMS_P2;Temp;Humidity;BMP_temperature;BMP_pressure;BME280_temperature;BME280_humidity;BME280_pressure;Samples;Min_cycle;Max_cycle;Signal;HPM_P1;HPM_P2
2021/12/22 00:02:16;;;;;;;153.35;72.15;;;;;;;;;;5053897;28;20582;-51
2021/12/22 00:04:47;;;;;;;148.00;71.28;;;;;;;;;;5053928;28;20496;-48
2021/12/22 00:07:13;;;;;;;145.68;70.97;;;;;;;;;;5053948;28;20017;-49
2021/12/22 00:09:40;;;;;;;161.82;73.97;;;;;;;;;;5053681;28;20518;-49
2021/12/22 00:12:06;;;;;;;159.55;74.95;;;;;;;;;;5054048;28;20048;-49
2021/12/22 00:14:32;;;;;;;170.77;80.38;;;;;;;;;;5053783;28;20452;-49
2021/12/22 00:16:58;;;;;;;169.00;78.38;;;;;;;;;;5053687;28;20049;-49
2021/12/22 00:19:26;;;;;;;175.35;82.20;;;;;;;;;;5053835;28;20044;-51
2021/12/22 00:21:53;;;;;;;165.02;74.38;;;;;;;;;;5053672;28;20055;-49
2021/12/22 00:24:20;;;;;;;161.60;76.95;;;;;;;;;;5053234;28;20060;-49
2021/12/22 00:26:46;;;;;;;165.48;75.63;;;;;;;;;;5053711;28;20033;-50
2021/12/22 00:29:13;;;;;;;179.52;83.00;;;;;;;;;;5053559;28;20083;-49
2021/12/22 00:31:55;;;;;;;173.68;80.95;;;;;;;;;;5053402;28;20488;-51
2021/12/22 00:34:26;;;;;;;171.57;74.78;;;;;;;;;;5053203;28;20037;-50
2021/12/22 00:36:52;;;;;;;169.73;75.43;;;;;;;;;;5053474;28;20033;-51
2021/12/22 00:39:18;;;;;;;161.30;73.78;;;;;;;;;;5053223;28;20072;-43
2021/12/22 00:41:44;;;;;;;139.32;65.18;;;;;;;;;;5053499;28;20021;-51
2021/12/22 00:44:12;;;;;;;143.30;65.90;;;;;;;;;;5053359;28;20025;-50
2021/12/22 00:46:38;;;;;;;132.07;61.92;;;;;;;;;;5053367;28;20017;-51
2021/12/22 00:49:04;;;;;;;132.95;60.95;;;;;;;;;;5053095;28;20049;-50
2021/12/22 00:51:30;;;;;;;124.07;55.35;;;;;;;;;;5053105;28;20021;-49
2021/12/22 00:53:56;;;;;;;138.27;64.82;;;;;;;;;;5053198;28;20029;-50
2021/12/22 00:56:23;;;;;;;161.18;72.10;;;;;;;;;;5053562;28;20568;-50
2021/12/22 00:58:51;;;;;;;134.80;62.08;;;;;;;;;;5053069;28;20041;-50
2021/12/22 01:01:17;;;;;;;117.38;56.10;;;;;;;;;;5053276;28;20595;-50
2021/12/22 01:03:43;;;;;;;115.00;52.53;;;;;;;;;;5053161;28;20024;-50
2021/12/22 01:06:09;;;;;;;105.03;50.05;;;;;;;;;;5053118;28;20017;-49
2021/12/22 01:08:35;;;;;;;109.70;48.75;;;;;;;;;;5052927;28;20033;-54
2021/12/22 01:11:02;;;;;;;101.32;49.50;;;;;;;;;;5053040;28;20477;-50
2021/12/22 01:13:29;;;;;;;132.82;61.08;;;;;;;;;;5053105;28;20025;-51
2021/12/22 01:15:55;;;;;;;141.32;63.53;;;;;;;;;;5052952;28;20052;-50
2021/12/22 01:18:31;;;;;;;145.30;64.22;;;;;;;;;;5041950;28;20018;-50
2021/12/22 01:24:47;;;;;;;157.70;68.45;;;;;;;;;;5033191;28;20026;-52
2021/12/22 01:26:46;;;;;;;174.45;74.55;;;;;;;;;;5028135;28;20041;-51
2021/12/22 01:29:15;;;;;;;178.15;79.32;;;;;;;;;;5033019;28;20045;-51
2021/12/22 01:31:44;;;;;;;178.23;78.90;;;;;;;;;;5033022;28;20021;-51
2021/12/22 01:34:12;;;;;;;190.82;82.70;;;;;;;;;;5033051;28;20021;-50
2021/12/22 01:36:41;;;;;;;208.98;85.90;;;;;;;;;;5033046;28;20542;-49
2021/12/22 01:39:08;;;;;;;217.07;90.13;;;;;;;;;;5032995;28;20037;-50
2021/12/22 01:41:34;;;;;;;224.88;95.07;;;;;;;;;;5032934;28;20028;-50
2021/12/22 01:44:00;;;;;;;174.02;76.55;;;;;;;;;;5033097;28;20055;-50
2021/12/22 01:49:12;;;;;;;140.80;65.72;;;;;;;;;;5036923;28;20073;-50
2021/12/22 01:51:38;;;;;;;142.30;65.80;;;;;;;;;;5036663;28;20022;-50
2021/12/22 01:54:07;;;;;;;152.30;67.63;;;;;;;;;;5036993;28;20030;-50
2021/12/22 01:56:34;;;;;;;141.98;65.75;;;;;;;;;;5036285;28;20021;-50
2021/12/22 01:59:02;;;;;;;121.50;57.05;;;;;;;;;;5036765;28;20068;-49
2021/12/22 02:01:31;;;;;;;100.45;49.67;;;;;;;;;;5036330;28;20036;-51
2021/12/22 02:04:02;;;;;;;89.22;46.08;;;;;;;;;;5036830;28;20029;-53
2021/12/22 02:06:28;;;;;;;92.85;46.58;;;;;;;;;;5036281;28;20036;-51
2021/12/22 02:08:54;;;;;;;94.28;46.22;;;;;;;;;;5036153;28;20042;-51
2021/12/22 02:11:21;;;;;;;104.75;47.67;;;;;;;;;;5036161;28;20440;-50
2021/12/22 02:13:54;;;;;;;91.47;47.00;;;;;;;;;;5036325;28;20021;-50
2021/12/22 02:16:26;;;;;;;96.25;46.47;;;;;;;;;;5036100;28;20076;-51
2021/12/22 02:18:53;;;;;;;90.68;43.50;;;;;;;;;;5036242;28;20378;-51
2021/12/22 02:21:22;;;;;;;94.40;44.28;;;;;;;;;;5036147;28;20052;-51
2021/12/22 02:23:50;;;;;;;86.38;43.83;;;;;;;;;;5036097;28;20108;-51
2021/12/22 02:26:21;;;;;;;90.72;45.22;;;;;;;;;;5035913;28;20030;-51
2021/12/22 02:28:58;;;;;;;92.88;45.17;;;;;;;;;;5035834;28;20045;-50
2021/12/22 02:31:27;;;;;;;89.03;46.17;;;;;;;;;;5035795;28;20060;-50
2021/12/22 02:33:54;;;;;;;89.25;44.90;;;;;;;;;;5036007;28;20021;-50
2021/12/22 02:36:27;;;;;;;114.80;54.13;;;;;;;;;;5035894;28;20034;-50
2021/12/22 02:38:55;;;;;;;132.07;56.55;;;;;;;;;;5035637;28;20547;-50
2021/12/22 02:41:23;;;;;;;127.10;56.92;;;;;;;;;;5035840;28;20067;-50
2021/12/22 02:43:54;;;;;;;121.90;54.47;;;;;;;;;;5035802;28;20029;-51
2021/12/22 02:46:28;;;;;;;121.75;55.28;;;;;;;;;;5035753;28;20022;-51
2021/12/22 02:48:55;;;;;;;117.97;54.95;;;;;;;;;;5035781;28;20087;-51
2021/12/22 02:51:21;;;;;;;103.70;52.05;;;;;;;;;;5035558;28;20076;-51
2021/12/22 02:59:11;;;;;;;124.35;57.20;;;;;;;;;;5035313;28;20030;-51
2021/12/22 03:04:13;;;;;;;150.27;64.22;;;;;;;;;;5035256;28;20026;-51
2021/12/22 03:06:52;;;;;;;146.32;66.45;;;;;;;;;;5035231;28;20100;-50
2021/12/22 03:09:20;;;;;;;136.25;62.35;;;;;;;;;;5035184;28;20044;-51
2021/12/22 03:11:47;;;;;;;160.88;69.20;;;;;;;;;;5035154;28;20098;-50
2021/12/22 03:14:14;;;;;;;142.25;62.85;;;;;;;;;;5035000;28;20026;-50
2021/12/22 03:16:43;;;;;;;141.68;61.72;;;;;;;;;;5034943;28;20049;-51
2021/12/22 03:19:10;;;;;;;149.23;66.90;;;;;;;;;;5035171;28;20084;-51
2021/12/22 03:21:37;;;;;;;163.75;75.43;;;;;;;;;;5034908;28;20037;-51
2021/12/22 03:24:03;;;;;;;173.75;72.80;;;;;;;;;;5035038;28;20025;-49
2021/12/22 03:26:30;;;;;;;143.05;65.28;;;;;;;;;;5034593;28;20104;-51
2021/12/22 03:28:57;;;;;;;117.82;55.03;;;;;;;;;;5034754;28;20030;-50
2021/12/22 03:31:23;;;;;;;113.88;52.58;;;;;;;;;;5034818;28;20029;-51
2021/12/22 03:33:49;;;;;;;109.72;51.67;;;;;;;;;;5034978;28;20519;-50
2021/12/22 03:36:15;;;;;;;125.90;57.15;;;;;;;;;;5034571;28;20033;-52
2021/12/22 03:38:42;;;;;;;129.25;61.25;;;;;;;;;;5034656;28;20060;-52
2021/12/22 03:41:09;;;;;;;151.85;69.93;;;;;;;;;;5034483;28;20025;-51
2021/12/22 03:43:38;;;;;;;159.63;73.80;;;;;;;;;;5034465;28;20389;-50
2021/12/22 03:46:06;;;;;;;145.93;71.03;;;;;;;;;;5034499;28;20508;-48
2021/12/22 03:48:33;;;;;;;136.82;66.40;;;;;;;;;;5034336;28;20167;-50
2021/12/22 03:50:59;;;;;;;137.55;66.00;;;;;;;;;;5034499;28;20108;-51
2021/12/22 03:53:25;;;;;;;127.80;63.40;;;;;;;;;;5034460;28;20037;-50
2021/12/22 03:55:51;;;;;;;120.20;59.40;;;;;;;;;;5034014;28;20029;-50
2021/12/22 03:58:17;;;;;;;124.22;60.53;;;;;;;;;;5034314;28;20036;-51
2021/12/22 04:00:44;;;;;;;120.43;59.38;;;;;;;;;;5034000;28;20021;-50
2021/12/22 04:03:16;;;;;;;119.78;58.75;;;;;;;;;;5034069;28;20025;-51
2021/12/22 04:05:45;;;;;;;122.43;60.70;;;;;;;;;;5034269;28;20030;-50
2021/12/22 04:08:13;;;;;;;123.07;63.13;;;;;;;;;;5033776;28;20025;-52
2021/12/22 04:10:39;;;;;;;130.65;65.18;;;;;;;;;;5034118;28;20167;-51
2021/12/22 04:13:05;;;;;;;135.27;64.40;;;;;;;;;;5033922;28;20026;-50
2021/12/22 04:15:31;;;;;;;128.70;63.00;;;;;;;;;;5033962;28;20059;-49
2021/12/22 04:17:58;;;;;;;119.43;57.47;;;;;;;;;;5033821;28;20501;-49
2021/12/22 04:20:28;;;;;;;116.68;59.42;;;;;;;;;;5033907;28;20482;-49
2021/12/22 04:22:57;;;;;;;116.60;55.15;;;;;;;;;;5033902;28;20382;-49
2021/12/22 04:25:23;;;;;;;121.43;57.70;;;;;;;;;;5033791;28;20029;-49
2021/12/22 04:27:50;;;;;;;123.60;57.13;;;;;;;;;;5033744;28;20028;-50
2021/12/22 04:30:16;;;;;;;104.85;53.22;;;;;;;;;;5033744;28;20037;-48
2021/12/22 04:32:43;;;;;;;115.05;55.45;;;;;;;;;;5033795;28;20021;-51
2021/12/22 04:35:09;;;;;;;114.55;53.55;;;;;;;;;;5033623;28;20030;-48
2021/12/22 04:37:35;;;;;;;113.13;51.88;;;;;;;;;;5033610;28;20026;-50
2021/12/22 04:40:01;;;;;;;120.28;56.28;;;;;;;;;;5033715;28;20100;-45
2021/12/22 04:42:30;;;;;;;112.05;57.75;;;;;;;;;;5033398;28;20108;-49
2021/12/22 04:44:57;;;;;;;115.40;56.40;;;;;;;;;;5033313;28;20458;-50
2021/12/22 04:47:23;;;;;;;129.45;60.65;;;;;;;;;;5033395;28;20014;-45
2021/12/22 04:49:50;;;;;;;170.68;74.45;;;;;;;;;;5033373;28;20025;-48
2021/12/22 04:52:19;;;;;;;145.23;68.05;;;;;;;;;;5033402;28;20025;-51
2021/12/22 04:55:02;;;;;;;125.97;59.15;;;;;;;;;;5033263;28;20104;-50
2021/12/22 04:57:29;;;;;;;128.70;58.53;;;;;;;;;;5033232;28;20091;-50
2021/12/22 04:59:55;;;;;;;126.05;59.30;;;;;;;;;;5033092;28;20083;-50
2021/12/22 05:02:21;;;;;;;115.55;54.75;;;;;;;;;;5033248;28;20026;-49
2021/12/22 05:04:49;;;;;;;115.57;54.95;;;;;;;;;;5033177;28;20079;-50
2021/12/22 05:07:16;;;;;;;117.05;53.15;;;;;;;;;;5033276;28;20044;-44
2021/12/22 05:09:42;;;;;;;120.57;57.83;;;;;;;;;;5033099;28;20033;-46
2021/12/22 05:12:08;;;;;;;112.63;51.40;;;;;;;;;;5033108;28;20496;-44
2021/12/22 05:14:34;;;;;;;112.18;54.13;;;;;;;;;;5033320;28;20033;-50
2021/12/22 05:17:03;;;;;;;107.35;52.63;;;;;;;;;;5032992;28;20076;-50
2021/12/22 05:19:29;;;;;;;119.85;56.08;;;;;;;;;;5033603;28;20025;-50
2021/12/22 05:21:58;;;;;;;112.22;55.03;;;;;;;;;;5037619;28;20025;-50
2021/12/22 05:24:29;;;;;;;102.32;50.42;;;;;;;;;;5036991;28;20375;-50
2021/12/22 05:26:55;;;;;;;94.63;45.85;;;;;;;;;;5036938;28;20500;-51
2021/12/22 05:29:23;;;;;;;81.53;41.05;;;;;;;;;;5037273;28;20112;-51
2021/12/22 05:31:54;;;;;;;83.57;42.22;;;;;;;;;;5037134;28;20105;-50
2021/12/22 05:34:20;;;;;;;96.60;47.38;;;;;;;;;;5037059;28;20128;-49
2021/12/22 05:36:46;;;;;;;91.00;46.50;;;;;;;;;;5037051;28;20021;-51
2021/12/22 05:39:14;;;;;;;87.75;44.80;;;;;;;;;;5036839;28;20474;-51
2021/12/22 05:41:40;;;;;;;88.38;46.63;;;;;;;;;;5036521;28;20039;-51
2021/12/22 05:44:07;;;;;;;94.53;45.85;;;;;;;;;;5036712;28;20072;-52
2021/12/22 05:46:33;;;;;;;89.28;45.55;;;;;;;;;;5036785;28;20446;-52
2021/12/22 05:49:01;;;;;;;92.53;48.47;;;;;;;;;;5036516;28;20022;-51
2021/12/22 05:51:29;;;;;;;94.47;50.97;;;;;;;;;;5037291;28;20032;-53
2021/12/22 05:53:55;;;;;;;107.35;51.90;;;;;;;;;;5036509;28;20022;-52
2021/12/22 05:56:21;;;;;;;77.97;42.05;;;;;;;;;;5036604;28;20033;-52
2021/12/22 05:58:50;;;;;;;78.93;41.65;;;;;;;;;;5036688;28;20048;-51
2021/12/22 06:01:16;;;;;;;72.80;36.83;;;;;;;;;;5036528;28;20139;-50
2021/12/22 06:03:42;;;;;;;67.93;35.50;;;;;;;;;;5036904;28;20036;-50
2021/12/22 06:06:10;;;;;;;72.22;39.67;;;;;;;;;;5036582;28;20029;-51
2021/12/22 06:08:36;;;;;;;83.35;41.92;;;;;;;;;;5036639;28;20033;-49
2021/12/22 06:11:05;;;;;;;79.85;42.72;;;;;;;;;;5036219;28;20037;-50
2021/12/22 06:13:31;;;;;;;94.35;48.60;;;;;;;;;;5036196;28;20052;-50
2021/12/22 06:15:57;;;;;;;102.75;49.53;;;;;;;;;;5036317;28;20061;-51
2021/12/22 06:18:23;;;;;;;105.78;50.85;;;;;;;;;;5036561;28;20053;-51
2021/12/22 06:20:49;;;;;;;121.22;57.95;;;;;;;;;;5036082;28;20026;-50
2021/12/22 06:23:15;;;;;;;145.63;71.60;;;;;;;;;;5035984;28;20493;-51
2021/12/22 06:25:44;;;;;;;112.18;57.42;;;;;;;;;;5036205;28;20040;-51
2021/12/22 06:28:10;;;;;;;77.13;42.75;;;;;;;;;;5035925;28;20520;-51
2021/12/22 06:30:36;;;;;;;88.30;49.83;;;;;;;;;;5035957;28;20092;-52
2021/12/22 06:33:03;;;;;;;73.18;40.70;;;;;;;;;;5036127;28;20489;-52
2021/12/22 06:35:29;;;;;;;72.35;38.05;;;;;;;;;;5035782;28;20033;-51
2021/12/22 06:37:55;;;;;;;57.15;31.80;;;;;;;;;;5036178;28;20108;-51
2021/12/22 06:40:21;;;;;;;53.97;31.33;;;;;;;;;;5035678;28;20025;-50
2021/12/22 06:42:47;;;;;;;52.85;30.60;;;;;;;;;;5035846;28;20474;-51
2021/12/22 06:45:14;;;;;;;59.60;31.83;;;;;;;;;;5035915;28;20029;-51
2021/12/22 06:47:40;;;;;;;61.28;30.83;;;;;;;;;;5035491;28;20029;-52
2021/12/22 06:50:07;;;;;;;63.42;31.23;;;;;;;;;;5035507;28;20037;-50
2021/12/22 06:52:36;;;;;;;64.60;33.35;;;;;;;;;;5035438;28;20018;-49
2021/12/22 06:55:03;;;;;;;70.30;36.80;;;;;;;;;;5035492;28;20389;-49
2021/12/22 06:57:31;;;;;;;70.03;38.35;;;;;;;;;;5035477;28;20034;-50
2021/12/22 07:00:02;;;;;;;77.57;39.90;;;;;;;;;;5035739;28;20021;-49
2021/12/22 07:02:31;;;;;;;74.45;40.20;;;;;;;;;;5034126;28;20120;-50
2021/12/22 07:04:57;;;;;;;104.10;46.83;;;;;;;;;;5035272;28;20045;-50
2021/12/22 07:07:23;;;;;;;113.93;46.90;;;;;;;;;;5035339;28;20033;-51
2021/12/22 07:09:49;;;;;;;93.45;39.67;;;;;;;;;;5035518;28;20029;-51
2021/12/22 07:12:17;;;;;;;81.00;38.53;;;;;;;;;;5034990;28;20104;-51
2021/12/22 07:14:43;;;;;;;76.28;36.95;;;;;;;;;;5035160;28;20014;-51
2021/12/22 07:17:10;;;;;;;77.03;36.85;;;;;;;;;;5035104;28;20037;-51
2021/12/22 07:19:36;;;;;;;67.90;34.25;;;;;;;;;;5035128;28;20100;-51
2021/12/22 07:22:02;;;;;;;77.15;35.30;;;;;;;;;;5035213;28;20105;-51
2021/12/22 07:24:28;;;;;;;62.20;29.55;;;;;;;;;;5034697;28;20076;-53
2021/12/22 07:26:54;;;;;;;64.18;30.48;;;;;;;;;;5034846;28;20036;-51
2021/12/22 07:29:20;;;;;;;53.03;28.23;;;;;;;;;;5035165;28;20021;-51
2021/12/22 07:31:46;;;;;;;71.53;29.33;;;;;;;;;;5034796;28;20072;-51
2021/12/22 07:34:13;;;;;;;65.90;33.85;;;;;;;;;;5033450;28;20445;-51
2021/12/22 07:36:52;;;;;;;77.68;35.47;;;;;;;;;;5034683;28;20045;-51
2021/12/22 07:39:18;;;;;;;94.25;42.97;;;;;;;;;;5034775;28;20028;-51
2021/12/22 07:41:44;;;;;;;95.22;45.47;;;;;;;;;;5034500;28;20028;-49
2021/12/22 07:44:10;;;;;;;86.93;42.88;;;;;;;;;;5034458;28;20029;-50
2021/12/22 07:46:41;;;;;;;110.68;35.10;;;;;;;;;;5034526;28;20535;-50
2021/12/22 07:49:07;;;;;;;143.13;41.72;;;;;;;;;;5034414;28;20516;-57
2021/12/22 07:51:33;;;;;;;138.63;43.75;;;;;;;;;;5034433;28;20129;-57
2021/12/22 07:54:00;;;;;;;144.10;44.88;;;;;;;;;;5034234;28;20032;-57
2021/12/22 07:56:26;;;;;;;128.27;49.67;;;;;;;;;;5034676;28;20083;-58
2021/12/22 07:58:54;;;;;;;136.50;50.20;;;;;;;;;;5034440;28;20080;-55
2021/12/22 08:01:22;;;;;;;117.38;48.50;;;;;;;;;;5034399;28;20104;-57
2021/12/22 08:03:48;;;;;;;134.30;56.08;;;;;;;;;;5034543;28;20545;-57
2021/12/22 08:06:15;;;;;;;102.05;47.97;;;;;;;;;;5034225;28;20026;-57
2021/12/22 08:08:41;;;;;;;105.82;48.53;;;;;;;;;;5033947;28;20065;-57
2021/12/22 08:11:07;;;;;;;111.05;50.65;;;;;;;;;;5034161;28;20462;-58
2021/12/22 08:13:34;;;;;;;89.72;43.63;;;;;;;;;;5034105;28;20104;-57
2021/12/22 08:16:01;;;;;;;97.10;41.72;;;;;;;;;;5033908;28;20025;-56
2021/12/22 08:18:27;;;;;;;76.70;41.55;;;;;;;;;;5033914;28;20021;-57
2021/12/22 08:20:54;;;;;;;100.30;45.67;;;;;;;;;;5033882;28;20034;-57
2021/12/22 08:23:20;;;;;;;98.85;46.38;;;;;;;;;;5033742;28;20032;-57
2021/12/22 08:25:46;;;;;;;110.45;52.85;;;;;;;;;;5033947;28;20116;-57
2021/12/22 08:28:13;;;;;;;87.50;45.95;;;;;;;;;;5033791;28;20112;-56
2021/12/22 08:30:39;;;;;;;98.28;47.00;;;;;;;;;;5033644;28;20044;-57
2021/12/22 08:33:15;;;;;;;88.43;46.10;;;;;;;;;;5033819;28;20067;-57
2021/12/22 08:41:17;;;;;;;101.20;45.22;;;;;;;;;;5012261;28;20164;-57
2021/12/22 08:43:43;;;;;;;87.13;40.22;;;;;;;;;;5011874;28;20048;-56
2021/12/22 08:46:12;;;;;;;71.72;34.30;;;;;;;;;;5011903;28;20124;-58
2021/12/22 08:48:38;;;;;;;87.20;40.42;;;;;;;;;;5011643;28;20025;-57
2021/12/22 08:51:04;;;;;;;63.67;35.88;;;;;;;;;;5011662;28;20088;-55
2021/12/22 08:53:30;;;;;;;48.03;29.15;;;;;;;;;;5011685;28;20022;-56
2021/12/22 08:55:56;;;;;;;60.63;29.98;;;;;;;;;;5011513;28;20034;-57
2021/12/22 08:58:22;;;;;;;44.33;24.50;;;;;;;;;;5011746;28;20108;-57
2021/12/22 09:00:48;;;;;;;52.03;28.05;;;;;;;;;;5011645;28;20032;-56
2021/12/22 09:03:14;;;;;;;46.10;25.55;;;;;;;;;;5011493;28;20038;-54
2021/12/22 09:05:40;;;;;;;49.97;24.77;;;;;;;;;;5011803;28;20498;-55
2021/12/22 09:08:06;;;;;;;91.03;42.35;;;;;;;;;;5011553;28;20030;-56
2021/12/22 09:10:32;;;;;;;96.47;46.83;;;;;;;;;;5011338;28;20518;-57
2021/12/22 09:12:58;;;;;;;91.20;42.97;;;;;;;;;;5011727;28;20034;-56
2021/12/22 09:15:25;;;;;;;67.75;34.28;;;;;;;;;;5020331;28;20117;-58
2021/12/22 09:17:51;;;;;;;46.08;25.35;;;;;;;;;;5033032;28;20046;-57
2021/12/22 09:20:17;;;;;;;49.35;23.27;;;;;;;;;;5033367;28;20041;-58
2021/12/22 09:22:43;;;;;;;48.17;28.95;;;;;;;;;;5033310;28;20504;-56
2021/12/22 09:25:09;;;;;;;49.65;27.25;;;;;;;;;;5033301;28;20029;-57
2021/12/22 09:27:35;;;;;;;78.97;37.20;;;;;;;;;;5033123;28;20041;-55
2021/12/22 09:30:02;;;;;;;99.32;44.22;;;;;;;;;;5033121;28;20030;-57
2021/12/22 09:32:28;;;;;;;55.35;29.92;;;;;;;;;;5033022;28;20083;-55
2021/12/22 09:34:54;;;;;;;59.80;33.67;;;;;;;;;;5032932;28;20028;-55
2021/12/22 09:37:20;;;;;;;38.80;22.60;;;;;;;;;;5033145;28;20025;-56
2021/12/22 09:39:46;;;;;;;54.97;20.88;;;;;;;;;;5033394;28;20048;-58
2021/12/22 09:42:12;;;;;;;45.80;18.20;;;;;;;;;;5033044;28;20036;-57
2021/12/22 09:44:45;;;;;;;38.38;18.60;;;;;;;;;;5033076;28;20386;-57
2021/12/22 09:47:13;;;;;;;31.70;17.08;;;;;;;;;;5033006;28;20022;-57
2021/12/22 09:52:19;;;;;;;27.65;15.98;;;;;;;;;;5032726;28;20037;-56
2021/12/22 09:54:53;;;;;;;31.83;15.85;;;;;;;;;;5032815;28;20105;-56
2021/12/22 09:57:20;;;;;;;25.70;15.35;;;;;;;;;;5032805;28;20108;-56
2021/12/22 09:59:47;;;;;;;29.65;16.35;;;;;;;;;;5032781;28;20389;-55
2021/12/22 10:02:13;;;;;;;32.38;18.10;;;;;;;;;;5032642;28;20060;-56
2021/12/22 10:04:39;;;;;;;37.53;20.45;;;;;;;;;;5032996;28;20017;-56
2021/12/22 10:07:08;;;;;;;24.95;16.13;;;;;;;;;;5035956;28;20411;-56
2021/12/22 10:09:42;;;;;;;23.95;16.35;;;;;;;;;;5036370;28;20386;-56
2021/12/22 10:12:15;;;;;;;29.30;16.52;;;;;;;;;;5036352;28;20485;-55
2021/12/22 10:14:53;;;;;;;27.17;16.67;;;;;;;;;;5036141;28;20053;-54
2021/12/22 10:17:34;;;;;;;27.27;17.40;;;;;;;;;;5036290;28;20033;-55
2021/12/22 10:20:01;;;;;;;25.27;16.25;;;;;;;;;;5036411;28;20022;-55
2021/12/22 10:22:31;;;;;;;23.25;14.85;;;;;;;;;;5035129;28;20025;-56
2021/12/22 10:25:08;;;;;;;26.17;16.10;;;;;;;;;;5036550;28;20026;-54
2021/12/22 10:27:34;;;;;;;26.90;16.48;;;;;;;;;;5035952;28;20030;-56
2021/12/22 10:30:00;;;;;;;26.65;14.95;;;;;;;;;;5035833;28;20492;-56
2021/12/22 10:32:29;;;;;;;26.48;14.48;;;;;;;;;;5036197;28;20032;-57
2021/12/22 10:34:58;;;;;;;27.85;16.30;;;;;;;;;;5035927;28;20044;-56
2021/12/22 10:37:52;;;;;;;32.42;19.35;;;;;;;;;;5035677;28;20048;-54
2021/12/22 10:40:29;;;;;;;32.88;17.85;;;;;;;;;;5033940;28;20042;-51
2021/12/22 10:42:58;;;;;;;27.30;11.90;;;;;;;;;;5035822;28;20505;-57
2021/12/22 10:45:27;;;;;;;12.88;8.63;;;;;;;;;;5035931;28;20096;-55
2021/12/22 10:50:42;;;;;;;24.08;12.07;;;;;;;;;;5036009;28;20044;-56
2021/12/22 10:53:09;;;;;;;31.15;13.73;;;;;;;;;;5035573;28;20025;-53
2021/12/22 10:55:43;;;;;;;25.00;13.52;;;;;;;;;;5035512;28;20018;-56
2021/12/22 10:58:18;;;;;;;32.15;14.35;;;;;;;;;;5035647;28;20080;-53
2021/12/22 11:00:45;;;;;;;38.90;14.10;;;;;;;;;;5034400;28;20465;-56
2021/12/22 11:03:15;;;;;;;30.35;16.05;;;;;;;;;;5035278;28;20021;-56
2021/12/22 11:05:45;;;;;;;37.47;17.87;;;;;;;;;;5035511;28;20382;-55
2021/12/22 11:08:22;;;;;;;24.77;13.32;;;;;;;;;;5035495;28;20032;-56
2021/12/22 11:10:49;;;;;;;35.90;16.65;;;;;;;;;;5035095;28;20029;-56
2021/12/22 11:13:19;;;;;;;51.08;23.70;;;;;;;;;;5035276;28;20116;-54
2021/12/22 11:15:45;;;;;;;44.90;23.23;;;;;;;;;;5035099;28;20049;-56
2021/12/22 11:18:24;;;;;;;29.05;16.35;;;;;;;;;;5032514;28;20136;-54
2021/12/22 11:21:10;;;;;;;26.48;14.52;;;;;;;;;;5035072;28;20060;-56
2021/12/22 11:23:36;;;;;;;23.58;13.48;;;;;;;;;;5035220;28;20021;-60
2021/12/22 11:26:03;;;;;;;26.15;15.07;;;;;;;;;;5035184;28;20037;-54
2021/12/22 11:28:29;;;;;;;20.75;12.02;;;;;;;;;;5034880;28;20021;-58
2021/12/22 11:30:56;;;;;;;23.92;14.90;;;;;;;;;;5034785;28;20072;-56
2021/12/22 11:33:24;;;;;;;23.63;14.85;;;;;;;;;;5034660;28;20021;-56
2021/12/22 11:35:50;;;;;;;27.50;13.85;;;;;;;;;;5034714;28;20482;-58
2021/12/22 11:38:17;;;;;;;24.30;13.32;;;;;;;;;;5034830;28;20022;-58
2021/12/22 11:40:53;;;;;;;25.48;12.10;;;;;;;;;;5034693;28;20034;-58
2021/12/22 11:43:19;;;;;;;21.77;13.35;;;;;;;;;;5034717;28;20038;-59
2021/12/22 11:45:46;;;;;;;31.15;13.55;;;;;;;;;;5034621;28;20084;-55
2021/12/22 11:48:12;;;;;;;18.88;10.50;;;;;;;;;;5034896;28;20107;-49
2021/12/22 11:50:44;;;;;;;18.20;9.90;;;;;;;;;;5034785;28;20026;-51
2021/12/22 11:53:13;;;;;;;17.08;10.20;;;;;;;;;;5034655;28;20466;-49
2021/12/22 11:55:42;;;;;;;20.83;10.73;;;;;;;;;;5034619;28;20151;-47
2021/12/22 11:58:14;;;;;;;24.80;11.15;;;;;;;;;;5034247;28;20112;-58
2021/12/22 12:00:40;;;;;;;;;;;;;;;;;;5035111;28;20470;-55
2021/12/22 12:03:25;;;;;;;18.98;11.05;;;;;;;;;;5034684;28;19959;-57
2021/12/22 12:06:02;;;;;;;19.33;11.27;;;;;;;;;;5034151;28;20100;-59
2021/12/22 12:08:33;;;;;;;21.15;10.15;;;;;;;;;;5032931;28;20030;-55
2021/12/22 12:11:00;;;;;;;12.73;7.95;;;;;;;;;;5034222;28;20482;-56
2021/12/22 12:13:37;;;;;;;28.70;9.05;;;;;;;;;;5034217;28;20029;-55
2021/12/22 12:22:04;;;;;;;31.27;10.50;;;;;;;;;;5033893;28;20040;-61
2021/12/22 12:24:37;;;;;;;31.15;9.55;;;;;;;;;;5033832;28;20549;-58
2021/12/22 12:27:32;;;;;;;16.33;8.77;;;;;;;;;;5033773;28;20044;-57
2021/12/22 12:30:15;;;;;;;24.63;9.40;;;;;;;;;;4991928;28;20038;-57
2021/12/22 12:32:41;;;;;;;18.05;8.63;;;;;;;;;;4992395;28;20506;-57
2021/12/22 12:35:19;;;;;;;54.35;13.35;;;;;;;;;;4992582;28;20073;-55
2021/12/22 12:37:57;;;;;;;21.73;9.40;;;;;;;;;;4992155;28;20023;-57
2021/12/22 12:40:24;;;;;;;13.95;8.65;;;;;;;;;;4992432;28;20038;-57
2021/12/22 12:42:56;;;;;;;18.75;8.63;;;;;;;;;;4992205;28;20031;-56
2021/12/22 12:45:45;;;;;;;65.10;11.80;;;;;;;;;;4992366;28;20034;-55
2021/12/22 12:48:32;;;;;;;20.60;11.68;;;;;;;;;;4992037;28;20141;-55
2021/12/22 12:51:15;;;;;;;111.18;21.73;;;;;;;;;;4992194;28;20042;-54
2021/12/22 12:53:42;;;;;;;31.05;13.52;;;;;;;;;;4992372;28;20081;-56
2021/12/22 12:56:10;;;;;;;85.72;16.92;;;;;;;;;;4991995;28;20065;-50
2021/12/22 12:58:56;;;;;;;26.92;13.07;;;;;;;;;;4991162;28;20038;-61
2021/12/22 13:01:51;;;;;;;38.97;21.08;;;;;;;;;;4986888;28;20475;-55
2021/12/22 13:04:22;;;;;;;47.65;17.83;;;;;;;;;;4990304;28;20062;-55
2021/12/22 13:06:49;;;;;;;40.03;21.58;;;;;;;;;;5011194;28;20026;-50
2021/12/22 13:09:26;;;;;;;39.13;20.45;;;;;;;;;;5031343;28;20108;-57
2021/12/22 13:11:59;;;;;;;35.72;20.33;;;;;;;;;;5032779;28;20033;-51
2021/12/22 13:17:20;;;;;;;52.45;19.55;;;;;;;;;;5033247;28;20105;-55
2021/12/22 13:19:52;;;;;;;39.90;18.25;;;;;;;;;;5033215;28;20470;-56
2021/12/22 13:22:19;;;;;;;50.45;21.45;;;;;;;;;;5033320;28;20029;-50
2021/12/22 13:24:48;;;;;;;34.08;15.73;;;;;;;;;;5033488;28;20482;-55
2021/12/22 13:27:30;;;;;;;32.05;14.27;;;;;;;;;;5033260;28;20056;-53
2021/12/22 13:30:10;;;;;;;27.40;12.45;;;;;;;;;;5033224;28;20029;-49
2021/12/22 13:32:37;;;;;;;17.35;10.15;;;;;;;;;;5033280;28;20037;-54
2021/12/22 13:35:03;;;;;;;33.67;13.60;;;;;;;;;;5033295;28;20064;-46
2021/12/22 13:37:30;;;;;;;28.30;11.70;;;;;;;;;;5033104;28;20447;-46
2021/12/22 13:39:57;;;;;;;17.83;10.23;;;;;;;;;;5033430;28;20409;-55
2021/12/22 13:42:23;;;;;;;22.77;12.60;;;;;;;;;;5037053;28;20026;-52
2021/12/22 13:44:49;;;;;;;22.73;12.88;;;;;;;;;;5036813;28;20061;-50
2021/12/22 13:47:15;;;;;;;44.15;16.77;;;;;;;;;;5036862;28;20026;-46
2021/12/22 13:49:43;;;;;;;32.85;14.82;;;;;;;;;;5036780;28;20072;-50
2021/12/22 13:52:10;;;;;;;31.88;16.33;;;;;;;;;;5036850;28;20038;-46
2021/12/22 13:54:36;;;;;;;49.95;21.65;;;;;;;;;;5036850;28;20108;-46
2021/12/22 13:57:04;;;;;;;52.08;20.35;;;;;;;;;;5036611;28;20057;-49
2021/12/22 13:59:31;;;;;;;35.20;16.85;;;;;;;;;;5034204;28;20378;-47
2021/12/22 14:02:01;;;;;;;48.35;19.27;;;;;;;;;;5035411;28;20025;-49
2021/12/22 14:04:27;;;;;;;61.65;21.88;;;;;;;;;;5036249;28;20107;-51
2021/12/22 14:06:54;;;;;;;59.72;24.05;;;;;;;;;;5036528;28;20033;-50
2021/12/22 14:09:30;;;;;;;103.43;29.17;;;;;;;;;;5036227;28;20057;-50
2021/12/22 14:11:56;;;;;;;97.75;31.02;;;;;;;;;;5034158;28;20029;-50
2021/12/22 14:14:34;;;;;;;70.50;26.17;;;;;;;;;;5036179;28;20014;-46
2021/12/22 14:17:04;;;;;;;96.60;27.63;;;;;;;;;;5034494;28;20052;-46
2021/12/22 14:19:33;;;;;;;110.65;28.52;;;;;;;;;;5033275;28;20088;-45
2021/12/22 14:22:20;;;;;;;80.22;27.70;;;;;;;;;;5035732;28;20030;-45
2021/12/22 14:24:50;;;;;;;74.20;31.92;;;;;;;;;;5035088;28;20060;-46
2021/12/22 14:27:28;;;;;;;86.88;33.47;;;;;;;;;;5035449;28;20397;-46
2021/12/22 14:29:54;;;;;;;89.68;31.70;;;;;;;;;;5033661;28;20531;-45
2021/12/22 14:32:26;;;;;;;69.05;33.60;;;;;;;;;;5035436;28;20037;-47
2021/12/22 14:34:54;;;;;;;;;;;;;;;;;;5033599;28;20032;-43
2021/12/22 14:37:29;;;;;;;68.63;30.88;;;;;;;;;;5035286;28;19912;-42
2021/12/22 14:39:56;;;;;;;64.40;29.95;;;;;;;;;;5033564;28;20022;-46
2021/12/22 14:42:27;;;;;;;55.10;28.27;;;;;;;;;;5035303;28;20017;-45
2021/12/22 14:45:13;;;;;;;65.07;32.03;;;;;;;;;;5033321;28;20025;-45
2021/12/22 14:47:39;;;;;;;72.95;37.55;;;;;;;;;;5033953;28;20308;-45
2021/12/22 14:50:12;;;;;;;96.35;48.03;;;;;;;;;;5034981;28;20389;-45
2021/12/22 14:52:53;;;;;;;96.80;52.33;;;;;;;;;;5034962;28;20034;-49
2021/12/22 14:55:33;;;;;;;108.28;57.33;;;;;;;;;;5033913;28;20368;-47
2021/12/22 14:58:02;;;;;;;114.60;57.13;;;;;;;;;;5025668;28;20393;-51